Terminal Aerodrome Forecast
Issued by NWS Jackson, MS

Home | Current Version | Previous Version | Text Only | Print | Product List | Glossary On
Versions: 1 2 3 4 5 6 7 8 9 10 11 12 13 14 15
000
FTUS44 KJAN 221133
TAFHBG
TAF
KHBG 221133Z 2212/2312 00000KT 1/4SM FG VV002
     FM221500 33005KT P6SM BKN015
     FM221800 34007KT P6SM BKN025
     FM222100 33006KT P6SM SCT030
     FM230600 VRB04KT 1SM BR SCT003=

USA.gov is the U.S. government's official web portal to all federal, state and local government web resources and services.